Time;durP1;ratioP1;P1;durP2;ratioP2;P2;SDS_P1;SDS_P2;PMS_P1;PMS_P2;Temp;Humidity;BMP_temperature;BMP_pressure;BME280_temperature;BME280_humidity;BME280_pressure;Samples;Min_cycle;Max_cycle;Signal;HPM_P1;HPM_P2
2021/12/23 00:00:23;;;;;;;20.33;10.33;;;;;;;;;;5069295;28;20263;-90
2021/12/23 00:02:59;;;;;;;20.17;10.30;;;;;;;;;;5075295;28;20217;-90
2021/12/23 00:05:26;;;;;;;22.20;11.57;;;;;;;;;;5075934;28;20209;-90
2021/12/23 00:07:54;;;;;;;23.47;13.20;;;;;;;;;;5073135;28;20210;-90
2021/12/23 00:10:22;;;;;;;32.23;14.17;;;;;;;;;;5073325;28;20209;-90
2021/12/23 00:12:50;;;;;;;22.37;11.77;;;;;;;;;;5074819;28;20225;-90
2021/12/23 00:15:27;;;;;;;27.97;13.50;;;;;;;;;;5069603;28;20202;-90
2021/12/23 00:17:58;;;;;;;20.57;10.50;;;;;;;;;;5074809;28;20219;-90
2021/12/23 00:23:27;;;;;;;23.77;11.10;;;;;;;;;;5070504;28;20224;-90
2021/12/23 00:26:00;;;;;;;19.17;10.80;;;;;;;;;;5070337;28;20220;-90
2021/12/23 00:28:27;;;;;;;24.57;11.23;;;;;;;;;;5074542;28;20246;-90
2021/12/23 00:30:54;;;;;;;18.57;11.47;;;;;;;;;;5074535;28;20213;-90
2021/12/23 00:33:23;;;;;;;23.03;12.23;;;;;;;;;;5066090;28;20629;-90
2021/12/23 00:35:50;;;;;;;21.80;11.90;;;;;;;;;;5071468;28;20639;-90
2021/12/23 00:38:23;;;;;;;27.40;13.83;;;;;;;;;;5074720;28;20282;-90
2021/12/23 00:40:51;;;;;;;21.07;11.47;;;;;;;;;;5062663;28;20206;-90
2021/12/23 00:43:20;;;;;;;18.33;10.73;;;;;;;;;;5074417;28;20225;-90
2021/12/23 00:45:48;;;;;;;17.87;9.97;;;;;;;;;;5074439;28;20730;-90
2021/12/23 00:48:15;;;;;;;18.70;9.30;;;;;;;;;;5067053;28;20755;-90
2021/12/23 00:50:42;;;;;;;23.73;13.03;;;;;;;;;;5074111;28;20266;-90
2021/12/23 00:53:10;;;;;;;25.80;12.87;;;;;;;;;;5074324;28;20282;-90
2021/12/23 00:55:38;;;;;;;27.93;12.07;;;;;;;;;;5074425;28;20213;-90
2021/12/23 00:58:06;;;;;;;26.93;13.70;;;;;;;;;;5067145;28;20275;-90
2021/12/23 01:00:34;;;;;;;21.93;11.87;;;;;;;;;;5068311;28;20216;-90
2021/12/23 01:03:03;;;;;;;23.93;10.27;;;;;;;;;;5073868;28;20221;-90
2021/12/23 01:05:31;;;;;;;19.17;8.93;;;;;;;;;;5074068;28;20267;-90
2021/12/23 01:07:58;;;;;;;15.17;5.50;;;;;;;;;;5066351;28;20214;-90
2021/12/23 01:10:26;;;;;;;22.67;12.10;;;;;;;;;;5073719;28;20256;-90
2021/12/23 01:12:58;;;;;;;24.40;13.33;;;;;;;;;;5073885;28;20236;-90
2021/12/23 01:15:50;;;;;;;25.90;12.70;;;;;;;;;;5074432;28;20205;-90
2021/12/23 01:18:21;;;;;;;24.97;13.13;;;;;;;;;;5060900;28;20225;-91
2021/12/23 01:20:52;;;;;;;21.57;12.43;;;;;;;;;;5074054;28;20201;-91
2021/12/23 01:23:21;;;;;;;23.73;12.13;;;;;;;;;;5074625;28;20236;-90
2021/12/23 01:25:48;;;;;;;17.03;9.67;;;;;;;;;;5071982;28;20258;-90
2021/12/23 01:28:16;;;;;;;20.63;10.97;;;;;;;;;;5073940;28;20223;-91
2021/12/23 01:30:43;;;;;;;21.87;11.67;;;;;;;;;;5073964;28;20209;-91
2021/12/23 01:33:11;;;;;;;26.10;13.10;;;;;;;;;;5074216;28;20777;-90
2021/12/23 01:35:41;;;;;;;18.30;9.87;;;;;;;;;;5068669;28;20217;-90
2021/12/23 01:38:09;;;;;;;16.67;8.80;;;;;;;;;;5073061;28;20217;-91
2021/12/23 01:40:36;;;;;;;19.20;10.93;;;;;;;;;;5074066;28;20262;-90
2021/12/23 01:43:04;;;;;;;20.47;10.13;;;;;;;;;;5063831;28;20322;-90
2021/12/23 01:45:33;;;;;;;19.43;10.40;;;;;;;;;;5061267;28;20206;-90
2021/12/23 01:48:01;;;;;;;17.07;10.13;;;;;;;;;;5070340;28;20286;-91
2021/12/23 01:50:30;;;;;;;20.13;10.67;;;;;;;;;;5073037;28;20209;-90
2021/12/23 01:53:00;;;;;;;20.57;11.40;;;;;;;;;;5073399;28;20629;-90
2021/12/23 01:55:27;;;;;;;18.47;10.93;;;;;;;;;;5073553;28;20217;-90
2021/12/23 01:57:55;;;;;;;17.83;10.90;;;;;;;;;;5061757;28;20209;-90
2021/12/23 02:00:24;;;;;;;23.10;10.43;;;;;;;;;;5063143;28;20666;-90
2021/12/23 02:02:52;;;;;;;24.40;11.53;;;;;;;;;;5064333;28;20280;-90
2021/12/23 02:05:19;;;;;;;20.30;11.13;;;;;;;;;;5072485;28;20201;-90
2021/12/23 02:07:47;;;;;;;19.43;9.50;;;;;;;;;;5073250;28;20205;-91
2021/12/23 02:10:16;;;;;;;24.40;11.80;;;;;;;;;;5064212;28;20205;-90
2021/12/23 02:12:44;;;;;;;20.33;10.67;;;;;;;;;;5073360;28;20689;-90
2021/12/23 02:15:11;;;;;;;18.03;10.47;;;;;;;;;;5073167;28;20208;-91
2021/12/23 02:17:39;;;;;;;21.33;11.60;;;;;;;;;;5068049;28;20205;-90
2021/12/23 02:20:08;;;;;;;20.43;10.13;;;;;;;;;;5071910;28;20218;-91
2021/12/23 02:22:36;;;;;;;20.17;10.83;;;;;;;;;;5072500;28;20271;-90
2021/12/23 02:25:04;;;;;;;22.47;11.27;;;;;;;;;;5073098;28;20213;-91
2021/12/23 02:27:48;;;;;;;17.37;9.60;;;;;;;;;;5063984;28;20207;-91
2021/12/23 02:30:18;;;;;;;16.63;9.97;;;;;;;;;;5073158;28;20208;-90
2021/12/23 02:32:46;;;;;;;18.93;9.50;;;;;;;;;;5079355;28;20212;-90
2021/12/23 02:35:28;;;;;;;17.53;9.43;;;;;;;;;;5075394;28;20205;-91
2021/12/23 02:37:57;;;;;;;24.07;12.20;;;;;;;;;;5068445;28;20205;-90
2021/12/23 02:40:26;;;;;;;20.67;9.97;;;;;;;;;;5072708;28;20221;-91
2021/12/23 02:42:53;;;;;;;17.47;9.70;;;;;;;;;;5073292;28;20237;-90
2021/12/23 02:45:21;;;;;;;20.07;9.47;;;;;;;;;;5069639;28;20209;-91
2021/12/23 02:47:48;;;;;;;18.80;10.10;;;;;;;;;;5072615;28;20205;-90
2021/12/23 02:50:15;;;;;;;20.37;10.80;;;;;;;;;;5072797;28;20564;-90
2021/12/23 02:52:43;;;;;;;24.17;11.20;;;;;;;;;;5072440;28;20221;-91
2021/12/23 02:55:11;;;;;;;20.93;11.00;;;;;;;;;;5063963;28;20206;-90
2021/12/23 02:57:39;;;;;;;25.23;11.97;;;;;;;;;;5072415;28;20739;-90
2021/12/23 03:00:07;;;;;;;19.63;9.77;;;;;;;;;;5072721;28;20278;-90
2021/12/23 03:02:34;;;;;;;21.57;10.80;;;;;;;;;;5068697;28;20225;-90
2021/12/23 03:05:02;;;;;;;20.13;10.83;;;;;;;;;;5070919;28;20209;-90
2021/12/23 03:07:29;;;;;;;21.43;11.37;;;;;;;;;;5072236;28;20198;-91
2021/12/23 03:09:56;;;;;;;24.27;11.73;;;;;;;;;;5072934;28;20197;-90
2021/12/23 03:12:25;;;;;;;27.13;12.30;;;;;;;;;;5062370;28;20232;-91
2021/12/23 03:14:52;;;;;;;21.87;10.67;;;;;;;;;;5060884;28;20569;-91
2021/12/23 03:17:20;;;;;;;24.33;12.93;;;;;;;;;;5066591;28;20202;-90
2021/12/23 03:19:47;;;;;;;18.63;10.07;;;;;;;;;;5072195;28;20213;-91
2021/12/23 03:22:14;;;;;;;22.00;11.23;;;;;;;;;;5072811;28;20228;-90
2021/12/23 03:24:41;;;;;;;22.43;11.83;;;;;;;;;;5061860;28;20198;-90
2021/12/23 03:27:09;;;;;;;28.90;13.00;;;;;;;;;;5069214;28;20202;-90
2021/12/23 03:29:37;;;;;;;26.67;13.30;;;;;;;;;;5072588;28;20230;-90
2021/12/23 03:32:05;;;;;;;27.10;12.17;;;;;;;;;;5066991;28;20276;-90
2021/12/23 03:34:33;;;;;;;21.43;10.83;;;;;;;;;;5068390;28;20205;-91
2021/12/23 03:37:00;;;;;;;20.43;11.27;;;;;;;;;;5065415;28;20794;-90
2021/12/23 03:39:27;;;;;;;24.83;13.20;;;;;;;;;;5061929;28;20221;-90
2021/12/23 03:41:55;;;;;;;22.60;11.97;;;;;;;;;;5071787;28;20598;-90
2021/12/23 03:44:22;;;;;;;23.00;13.07;;;;;;;;;;5072136;28;20553;-91
2021/12/23 03:46:51;;;;;;;20.10;10.73;;;;;;;;;;5068172;28;20205;-90
2021/12/23 03:49:19;;;;;;;21.27;10.97;;;;;;;;;;5075647;28;20243;-91
2021/12/23 03:51:46;;;;;;;18.40;10.53;;;;;;;;;;5075399;28;20314;-90
2021/12/23 03:54:13;;;;;;;16.60;9.70;;;;;;;;;;5075833;28;20220;-91
2021/12/23 03:56:41;;;;;;;21.20;11.13;;;;;;;;;;5069460;28;20212;-90
2021/12/23 03:59:15;;;;;;;24.67;11.63;;;;;;;;;;5075137;28;20363;-90
2021/12/23 04:01:42;;;;;;;27.13;13.97;;;;;;;;;;5075950;28;20235;-90
2021/12/23 04:04:11;;;;;;;22.90;12.47;;;;;;;;;;5072365;28;20270;-91
2021/12/23 04:06:38;;;;;;;19.93;10.60;;;;;;;;;;5072651;28;20233;-90
2021/12/23 04:09:05;;;;;;;19.03;10.20;;;;;;;;;;5059621;28;20202;-90
2021/12/23 04:11:33;;;;;;;19.73;11.40;;;;;;;;;;5075538;28;20229;-91
2021/12/23 04:14:00;;;;;;;18.37;9.83;;;;;;;;;;5075371;28;20234;-90
2021/12/23 04:16:27;;;;;;;21.23;11.60;;;;;;;;;;5072890;28;20202;-90
2021/12/23 04:18:55;;;;;;;19.50;11.10;;;;;;;;;;5068166;28;20271;-90
2021/12/23 04:21:24;;;;;;;25.03;12.17;;;;;;;;;;5075035;28;20221;-90
2021/12/23 04:23:52;;;;;;;19.50;10.70;;;;;;;;;;5054811;28;20202;-91
2021/12/23 04:26:19;;;;;;;18.70;9.67;;;;;;;;;;5062046;28;20209;-90
2021/12/23 04:28:47;;;;;;;15.80;9.17;;;;;;;;;;5074899;28;20206;-90
2021/12/23 04:31:15;;;;;;;17.00;9.60;;;;;;;;;;5075033;28;20206;-90
2021/12/23 04:33:43;;;;;;;21.57;12.57;;;;;;;;;;5075101;28;20255;-90
2021/12/23 04:36:11;;;;;;;23.20;11.73;;;;;;;;;;5067289;28;20727;-90
2021/12/23 04:38:40;;;;;;;24.00;12.13;;;;;;;;;;5074932;28;20206;-91
2021/12/23 04:41:07;;;;;;;21.03;11.93;;;;;;;;;;5074538;28;20222;-91
2021/12/23 04:43:35;;;;;;;19.90;10.27;;;;;;;;;;5072060;28;20262;-91
2021/12/23 04:46:02;;;;;;;23.43;11.53;;;;;;;;;;5070730;28;20212;-91
2021/12/23 04:48:30;;;;;;;21.67;10.87;;;;;;;;;;5074964;28;20598;-91
2021/12/23 04:50:58;;;;;;;18.13;9.70;;;;;;;;;;5069757;28;20651;-91
2021/12/23 04:53:25;;;;;;;22.13;12.27;;;;;;;;;;5074263;28;20229;-89
2021/12/23 04:55:54;;;;;;;23.47;10.97;;;;;;;;;;5074713;28;20217;-90
2021/12/23 04:58:22;;;;;;;24.73;12.23;;;;;;;;;;5073733;28;20213;-91
2021/12/23 05:00:50;;;;;;;21.57;11.23;;;;;;;;;;5066390;28;20752;-90
2021/12/23 05:03:18;;;;;;;20.07;10.97;;;;;;;;;;5062149;28;20698;-91
2021/12/23 05:05:46;;;;;;;22.97;10.83;;;;;;;;;;5074009;28;20235;-90
2021/12/23 05:08:14;;;;;;;20.33;9.87;;;;;;;;;;5072839;28;20204;-90
2021/12/23 05:10:41;;;;;;;24.40;11.93;;;;;;;;;;5074051;28;20208;-91
2021/12/23 05:13:10;;;;;;;20.37;10.23;;;;;;;;;;5074252;28;20243;-91
2021/12/23 05:15:37;;;;;;;16.27;10.13;;;;;;;;;;5069526;28;20205;-91
2021/12/23 05:18:06;;;;;;;19.33;10.13;;;;;;;;;;5067992;28;20201;-91
2021/12/23 05:20:33;;;;;;;23.80;13.07;;;;;;;;;;5068487;28;20221;-90
2021/12/23 05:23:00;;;;;;;17.63;11.07;;;;;;;;;;5069373;28;20229;-90
2021/12/23 05:25:28;;;;;;;19.83;10.57;;;;;;;;;;5070534;28;20217;-91
2021/12/23 05:27:55;;;;;;;20.67;8.83;;;;;;;;;;5070948;28;20201;-91
2021/12/23 05:30:25;;;;;;;21.63;11.60;;;;;;;;;;5069434;28;20623;-90
2021/12/23 05:32:53;;;;;;;18.70;10.80;;;;;;;;;;5064580;28;20229;-90
2021/12/23 05:35:21;;;;;;;19.57;10.30;;;;;;;;;;5079215;28;20251;-91
2021/12/23 05:37:49;;;;;;;24.03;12.20;;;;;;;;;;5072209;28;20209;-91
2021/12/23 05:40:18;;;;;;;19.30;10.47;;;;;;;;;;5056781;28;20225;-90
2021/12/23 05:42:45;;;;;;;24.73;11.60;;;;;;;;;;5069397;28;20221;-91
2021/12/23 05:45:13;;;;;;;20.23;11.50;;;;;;;;;;5053543;28;20206;-91
2021/12/23 05:47:42;;;;;;;18.60;9.97;;;;;;;;;;5053730;28;20214;-90
2021/12/23 05:50:10;;;;;;;19.90;10.13;;;;;;;;;;5071224;28;20643;-90
2021/12/23 05:52:38;;;;;;;16.07;9.87;;;;;;;;;;5073447;28;20225;-90
2021/12/23 05:55:05;;;;;;;20.73;10.33;;;;;;;;;;5073591;28;20197;-90
2021/12/23 05:57:33;;;;;;;19.17;10.30;;;;;;;;;;5066406;28;20201;-90
2021/12/23 06:00:01;;;;;;;23.87;12.23;;;;;;;;;;5071429;28;20255;-91
2021/12/23 06:02:29;;;;;;;15.80;9.37;;;;;;;;;;5073588;28;20229;-90
2021/12/23 06:04:57;;;;;;;19.53;10.60;;;;;;;;;;5069231;28;20681;-91
2021/12/23 06:07:25;;;;;;;16.33;9.97;;;;;;;;;;5064851;28;20197;-90
2021/12/23 06:09:52;;;;;;;19.50;11.10;;;;;;;;;;5072333;28;20201;-90
2021/12/23 06:12:19;;;;;;;19.93;11.23;;;;;;;;;;5073280;28;20228;-89
2021/12/23 06:14:47;;;;;;;19.73;9.83;;;;;;;;;;5069605;28;20208;-90
2021/12/23 06:17:14;;;;;;;19.73;10.37;;;;;;;;;;5067031;28;20650;-90
2021/12/23 06:19:41;;;;;;;19.90;10.87;;;;;;;;;;5072660;28;20205;-90
2021/12/23 06:22:12;;;;;;;21.70;10.33;;;;;;;;;;5070948;28;20221;-90
2021/12/23 06:24:43;;;;;;;18.07;9.17;;;;;;;;;;5070970;28;20540;-90
2021/12/23 06:27:10;;;;;;;17.27;9.07;;;;;;;;;;5072597;28;20233;-90
2021/12/23 06:29:39;;;;;;;20.33;10.37;;;;;;;;;;5073404;28;20228;-90
2021/12/23 06:32:06;;;;;;;20.27;10.47;;;;;;;;;;5066402;28;20222;-90
2021/12/23 06:34:34;;;;;;;20.30;10.80;;;;;;;;;;5073005;28;20213;-90
2021/12/23 06:37:03;;;;;;;17.33;9.63;;;;;;;;;;5072592;28;20259;-90
2021/12/23 06:39:32;;;;;;;21.10;11.30;;;;;;;;;;5065317;28;20202;-90
2021/12/23 06:41:59;;;;;;;20.07;10.93;;;;;;;;;;5064959;28;20312;-90
2021/12/23 06:44:27;;;;;;;23.60;10.90;;;;;;;;;;5072404;28;20202;-90
2021/12/23 06:46:54;;;;;;;20.47;9.60;;;;;;;;;;5073135;28;20291;-89
2021/12/23 06:49:21;;;;;;;19.33;10.73;;;;;;;;;;5070584;28;20201;-90
2021/12/23 06:51:49;;;;;;;18.63;10.60;;;;;;;;;;5072404;28;20270;-90
2021/12/23 06:54:16;;;;;;;15.10;8.70;;;;;;;;;;5072950;28;20213;-89
2021/12/23 06:56:46;;;;;;;16.93;9.47;;;;;;;;;;5068347;28;20229;-91
2021/12/23 06:59:15;;;;;;;20.13;11.27;;;;;;;;;;5069004;28;20213;-89
2021/12/23 07:01:46;;;;;;;24.83;11.40;;;;;;;;;;5072337;28;20237;-90
2021/12/23 07:04:22;;;;;;;20.00;10.93;;;;;;;;;;5077782;28;20292;-89
2021/12/23 07:06:58;;;;;;;24.47;12.67;;;;;;;;;;5059608;28;20216;-89
2021/12/23 07:09:26;;;;;;;17.00;9.13;;;;;;;;;;5072104;28;20192;-90
2021/12/23 07:11:54;;;;;;;17.33;9.70;;;;;;;;;;5069701;28;20763;-89
2021/12/23 07:14:22;;;;;;;13.43;7.87;;;;;;;;;;5070390;28;20216;-89
2021/12/23 07:16:58;;;;;;;16.77;9.67;;;;;;;;;;5062553;28;20206;-90
2021/12/23 07:19:25;;;;;;;17.60;9.73;;;;;;;;;;5072332;28;20193;-90
2021/12/23 07:21:53;;;;;;;27.53;11.60;;;;;;;;;;5078745;28;20233;-92
2021/12/23 07:24:20;;;;;;;19.70;11.03;;;;;;;;;;5070834;28;20201;-93
2021/12/23 07:26:48;;;;;;;18.63;9.73;;;;;;;;;;5065307;28;20582;-91
2021/12/23 07:29:17;;;;;;;20.83;11.43;;;;;;;;;;5068568;28;20209;-90
2021/12/23 07:31:45;;;;;;;22.17;11.97;;;;;;;;;;5077346;28;20250;-90
2021/12/23 07:34:12;;;;;;;19.53;11.40;;;;;;;;;;5073231;28;20235;-90
2021/12/23 07:36:41;;;;;;;21.30;10.77;;;;;;;;;;5068050;28;20639;-90
2021/12/23 07:39:09;;;;;;;20.43;10.47;;;;;;;;;;5062988;28;20576;-90
2021/12/23 07:41:36;;;;;;;18.57;10.13;;;;;;;;;;5069969;28;20225;-90
2021/12/23 07:44:06;;;;;;;21.03;11.13;;;;;;;;;;5075643;28;20267;-90
2021/12/23 07:46:37;;;;;;;22.43;10.93;;;;;;;;;;5075848;28;20210;-91
2021/12/23 07:49:05;;;;;;;18.77;9.57;;;;;;;;;;5071039;28;20217;-90
2021/12/23 07:51:33;;;;;;;19.23;10.03;;;;;;;;;;5073934;28;20240;-90
2021/12/23 07:54:00;;;;;;;24.37;12.00;;;;;;;;;;5075532;28;20646;-89
2021/12/23 07:56:28;;;;;;;20.13;11.10;;;;;;;;;;5073555;28;20205;-90
2021/12/23 07:58:55;;;;;;;20.77;10.87;;;;;;;;;;5067227;28;20614;-91
2021/12/23 08:01:22;;;;;;;28.80;12.27;;;;;;;;;;5072674;28;20316;-91
2021/12/23 08:03:51;;;;;;;22.07;10.53;;;;;;;;;;5069942;28;20205;-91
2021/12/23 08:06:24;;;;;;;16.13;10.10;;;;;;;;;;5075237;28;20205;-91
2021/12/23 08:08:53;;;;;;;16.77;10.53;;;;;;;;;;5080092;28;20292;-93
2021/12/23 08:11:20;;;;;;;18.07;9.43;;;;;;;;;;5068057;28;20204;-91
2021/12/23 08:13:56;;;;;;;21.33;11.87;;;;;;;;;;5075585;28;20213;-90
2021/12/23 08:16:23;;;;;;;18.63;10.57;;;;;;;;;;5071513;28;20535;-87
2021/12/23 08:18:53;;;;;;;22.30;10.63;;;;;;;;;;5074605;28;20205;-87
2021/12/23 08:21:28;;;;;;;23.83;12.10;;;;;;;;;;5069699;28;20222;-87
2021/12/23 08:24:07;;;;;;;25.20;11.67;;;;;;;;;;5068658;28;20653;-87
2021/12/23 08:26:40;;;;;;;20.20;9.67;;;;;;;;;;5074760;28;20213;-88
2021/12/23 08:29:07;;;;;;;21.07;10.93;;;;;;;;;;5072718;28;20208;-88
2021/12/23 08:31:35;;;;;;;28.20;11.00;;;;;;;;;;5057463;28;20254;-87
2021/12/23 08:34:06;;;;;;;29.57;13.17;;;;;;;;;;5074468;28;20225;-88
2021/12/23 08:36:33;;;;;;;21.47;10.83;;;;;;;;;;5078358;28;20562;-92
2021/12/23 08:39:00;;;;;;;25.10;12.70;;;;;;;;;;5064080;28;20214;-89
2021/12/23 08:41:28;;;;;;;25.10;11.93;;;;;;;;;;5069881;28;20492;-90
2021/12/23 08:44:01;;;;;;;23.93;13.53;;;;;;;;;;5070294;28;20569;-90
2021/12/23 08:46:28;;;;;;;25.30;13.13;;;;;;;;;;5073747;28;20658;-90
2021/12/23 08:48:55;;;;;;;26.40;13.73;;;;;;;;;;5061688;28;20206;-90
2021/12/23 08:51:24;;;;;;;22.93;13.07;;;;;;;;;;5067909;28;20201;-90
2021/12/23 08:53:52;;;;;;;26.87;15.23;;;;;;;;;;5073867;28;20242;-90
2021/12/23 08:56:19;;;;;;;27.00;14.27;;;;;;;;;;5073917;28;20205;-90
2021/12/23 08:58:46;;;;;;;33.47;15.13;;;;;;;;;;5063385;28;20205;-90
2021/12/23 09:01:14;;;;;;;30.70;15.57;;;;;;;;;;5073464;28;20225;-89
2021/12/23 09:03:51;;;;;;;26.57;13.97;;;;;;;;;;5078435;28;20205;-89
2021/12/23 09:06:18;;;;;;;27.13;15.30;;;;;;;;;;5066773;28;20196;-89
2021/12/23 09:08:47;;;;;;;27.27;14.87;;;;;;;;;;5073093;28;20669;-91
2021/12/23 09:11:14;;;;;;;23.07;13.30;;;;;;;;;;5056367;28;20616;-90
2021/12/23 09:13:41;;;;;;;27.50;15.77;;;;;;;;;;5070858;28;20202;-90
2021/12/23 09:16:09;;;;;;;30.30;15.40;;;;;;;;;;5068484;28;20221;-91
2021/12/23 09:18:37;;;;;;;24.63;13.83;;;;;;;;;;5072758;28;20598;-90
2021/12/23 09:21:04;;;;;;;29.40;14.17;;;;;;;;;;5063336;28;20239;-90
2021/12/23 09:23:32;;;;;;;27.40;15.80;;;;;;;;;;5066853;28;20224;-90
2021/12/23 09:26:02;;;;;;;22.57;12.87;;;;;;;;;;5075477;28;20240;-89
2021/12/23 09:28:38;;;;;;;29.03;13.90;;;;;;;;;;5073077;28;20647;-87
2021/12/23 09:33:51;;;;;;;28.63;14.33;;;;;;;;;;5071600;28;20660;-88
2021/12/23 09:36:18;;;;;;;23.83;13.60;;;;;;;;;;5072731;28;20671;-87
2021/12/23 09:38:46;;;;;;;30.63;14.63;;;;;;;;;;5073354;28;20201;-87
2021/12/23 09:41:16;;;;;;;29.07;15.43;;;;;;;;;;5068389;28;20282;-87
2021/12/23 09:43:44;;;;;;;34.07;15.53;;;;;;;;;;5071849;28;20213;-88
2021/12/23 09:46:22;;;;;;;27.03;14.83;;;;;;;;;;5072547;28;20623;-88
2021/12/23 09:48:50;;;;;;;31.53;15.20;;;;;;;;;;5080274;28;20229;-89
2021/12/23 09:51:19;;;;;;;25.40;12.93;;;;;;;;;;5057230;28;20201;-90
2021/12/23 09:53:47;;;;;;;27.00;13.70;;;;;;;;;;5072716;28;20247;-90
2021/12/23 09:56:15;;;;;;;26.70;13.00;;;;;;;;;;5072944;28;20231;-90
2021/12/23 09:58:46;;;;;;;32.63;15.10;;;;;;;;;;5066500;28;20205;-88
2021/12/23 10:01:14;;;;;;;26.60;13.83;;;;;;;;;;5065723;28;20313;-92
2021/12/23 10:03:41;;;;;;;26.90;14.00;;;;;;;;;;5072782;28;20208;-91
2021/12/23 10:06:09;;;;;;;30.57;15.73;;;;;;;;;;5063744;28;20614;-92
2021/12/23 10:08:43;;;;;;;26.43;14.20;;;;;;;;;;5068659;28;20205;-93
2021/12/23 10:11:20;;;;;;;29.20;14.10;;;;;;;;;;5072903;28;20197;-92
2021/12/23 10:30:34;;;;;;;25.90;13.23;;;;;;;;;;5072003;28;20201;-93
2021/12/23 10:38:34;;;;;;;29.27;13.27;;;;;;;;;;5072413;28;20232;-92
2021/12/23 10:41:02;;;;;;;24.03;13.13;;;;;;;;;;5062990;28;20205;-92
2021/12/23 10:43:37;;;;;;;28.70;14.10;;;;;;;;;;5072215;28;20290;-92
2021/12/23 10:46:08;;;;;;;30.93;15.03;;;;;;;;;;5067228;28;20208;-92
2021/12/23 10:48:45;;;;;;;31.20;13.90;;;;;;;;;;5072318;28;20209;-92
2021/12/23 10:51:17;;;;;;;44.57;21.00;;;;;;;;;;5068917;28;20212;-92
2021/12/23 10:53:56;;;;;;;28.13;15.43;;;;;;;;;;5060419;28;20206;-94
2021/12/23 10:59:14;;;;;;;28.33;14.50;;;;;;;;;;5073456;28;20244;-93
2021/12/23 11:01:56;;;;;;;40.33;21.83;;;;;;;;;;5071385;28;20225;-93
2021/12/23 11:04:25;;;;;;;31.27;15.70;;;;;;;;;;5069163;28;20193;-93
2021/12/23 11:07:10;;;;;;;26.10;14.47;;;;;;;;;;5074226;28;20216;-93
2021/12/23 11:09:44;;;;;;;29.07;15.97;;;;;;;;;;5069960;28;20212;-93
2021/12/23 11:37:58;;;;;;;27.67;15.07;;;;;;;;;;5072618;28;20196;-90
2021/12/23 11:43:31;;;;;;;31.70;15.97;;;;;;;;;;5067314;28;20238;-90
2021/12/23 11:45:58;;;;;;;29.60;14.80;;;;;;;;;;5073110;28;20233;-90
2021/12/23 11:48:26;;;;;;;30.40;15.50;;;;;;;;;;5075112;28;20201;-90
2021/12/23 11:51:06;;;;;;;28.23;15.07;;;;;;;;;;5075597;28;20629;-90
2021/12/23 11:53:37;;;;;;;31.57;15.77;;;;;;;;;;5069245;28;20197;-90
2021/12/23 11:56:06;;;;;;;32.87;16.47;;;;;;;;;;5072860;28;20228;-90
2021/12/23 11:58:44;;;;;;;27.40;14.47;;;;;;;;;;5075411;28;20201;-90
2021/12/23 12:01:12;;;;;;;26.03;13.67;;;;;;;;;;5068459;28;20205;-89
2021/12/23 12:03:42;;;;;;;31.13;15.87;;;;;;;;;;5070073;28;20255;-92
2021/12/23 12:06:17;;;;;;;27.63;15.13;;;;;;;;;;5074371;28;20204;-91
2021/12/23 12:08:46;;;;;;;30.60;15.43;;;;;;;;;;5074937;28;20242;-92
2021/12/23 12:11:20;;;;;;;30.57;15.77;;;;;;;;;;5065899;28;20289;-91
2021/12/23 12:13:48;;;;;;;36.93;16.17;;;;;;;;;;5074725;28;20250;-92
2021/12/23 12:19:14;;;;;;;31.97;15.63;;;;;;;;;;5066227;28;20190;-93
2021/12/23 12:21:44;;;;;;;31.27;16.83;;;;;;;;;;5071169;28;20308;-91
2021/12/23 12:24:14;;;;;;;34.13;16.97;;;;;;;;;;5073783;28;20213;-92
2021/12/23 12:26:55;;;;;;;28.60;15.43;;;;;;;;;;5067685;28;20217;-91
2021/12/23 12:29:26;;;;;;;23.10;12.03;;;;;;;;;;5067429;28;20205;-91
2021/12/23 12:31:53;;;;;;;28.13;13.67;;;;;;;;;;5074504;28;20590;-92
2021/12/23 12:34:21;;;;;;;27.30;13.80;;;;;;;;;;5068832;28;20292;-91
2021/12/23 12:36:49;;;;;;;26.57;14.23;;;;;;;;;;5070990;28;20205;-90
2021/12/23 12:39:25;;;;;;;30.87;14.03;;;;;;;;;;5074503;28;20265;-90
2021/12/23 12:42:00;;;;;;;36.93;14.40;;;;;;;;;;5071080;28;20217;-90
2021/12/23 12:44:36;;;;;;;29.07;13.40;;;;;;;;;;5067161;28;20201;-91
2021/12/23 12:47:08;;;;;;;29.23;13.33;;;;;;;;;;5073670;28;20201;-91
2021/12/23 12:49:39;;;;;;;36.40;15.57;;;;;;;;;;5072682;28;20222;-90
2021/12/23 12:52:18;;;;;;;36.33;15.17;;;;;;;;;;5068919;28;20222;-90
2021/12/23 12:54:49;;;;;;;33.17;15.03;;;;;;;;;;5074317;28;20228;-91
2021/12/23 12:57:18;;;;;;;33.27;14.63;;;;;;;;;;5074033;28;20308;-91
2021/12/23 12:59:46;;;;;;;29.60;13.53;;;;;;;;;;5071961;28;20221;-91
2021/12/23 13:02:24;;;;;;;33.07;15.07;;;;;;;;;;5070238;28;20221;-91
2021/12/23 13:04:52;;;;;;;31.07;15.37;;;;;;;;;;5073968;28;20200;-91
2021/12/23 13:07:25;;;;;;;29.43;15.53;;;;;;;;;;5074188;28;20209;-90
2021/12/23 13:09:57;;;;;;;36.70;14.50;;;;;;;;;;5063412;28;20209;-91
2021/12/23 13:12:32;;;;;;;26.37;13.93;;;;;;;;;;5067797;28;20580;-91
2021/12/23 13:15:16;;;;;;;31.03;15.40;;;;;;;;;;5074998;28;20872;-91
2021/12/23 13:17:45;;;;;;;28.93;14.67;;;;;;;;;;5070885;28;20205;-89
2021/12/23 13:20:13;;;;;;;26.67;12.93;;;;;;;;;;5067782;28;20210;-91
2021/12/23 13:22:43;;;;;;;27.90;14.77;;;;;;;;;;5069092;28;20616;-90
2021/12/23 13:25:12;;;;;;;26.43;14.67;;;;;;;;;;5073449;28;20209;-90
2021/12/23 13:27:40;;;;;;;24.47;13.03;;;;;;;;;;5078637;28;20209;-90
2021/12/23 13:30:09;;;;;;;32.40;15.90;;;;;;;;;;5076295;28;20210;-91
2021/12/23 13:32:36;;;;;;;25.20;13.83;;;;;;;;;;5072844;28;20921;-90
2021/12/23 13:35:10;;;;;;;29.17;13.37;;;;;;;;;;5070681;28;20274;-90
2021/12/23 13:37:42;;;;;;;27.67;13.27;;;;;;;;;;5069881;28;20205;-91
2021/12/23 13:40:10;;;;;;;28.00;14.17;;;;;;;;;;5072961;28;20258;-91
2021/12/23 13:42:41;;;;;;;31.03;14.20;;;;;;;;;;5073068;28;20262;-91
2021/12/23 13:45:09;;;;;;;26.57;15.17;;;;;;;;;;5055056;28;20217;-90
2021/12/23 13:47:37;;;;;;;27.47;14.87;;;;;;;;;;5067905;28;20201;-90
2021/12/23 13:50:05;;;;;;;30.13;14.37;;;;;;;;;;5073327;28;20201;-91
2021/12/23 13:52:33;;;;;;;30.27;15.03;;;;;;;;;;5070891;28;20217;-91
2021/12/23 13:55:02;;;;;;;30.73;15.70;;;;;;;;;;5065384;28;20467;-91
2021/12/23 13:57:30;;;;;;;32.17;15.93;;;;;;;;;;5072687;28;20197;-90
2021/12/23 13:59:59;;;;;;;31.83;15.40;;;;;;;;;;5074911;28;20255;-89
2021/12/23 14:05:18;;;;;;;36.30;16.13;;;;;;;;;;5072932;28;20182;-91
2021/12/23 14:07:47;;;;;;;30.63;15.77;;;;;;;;;;5067200;28;20557;-90
2021/12/23 14:10:15;;;;;;;33.57;16.40;;;;;;;;;;5055752;28;20293;-90
2021/12/23 14:12:46;;;;;;;31.77;15.10;;;;;;;;;;5068719;28;20275;-90
2021/12/23 14:15:15;;;;;;;35.07;15.70;;;;;;;;;;5063962;28;20220;-91
2021/12/23 14:17:45;;;;;;;34.00;15.53;;;;;;;;;;5060410;28;20264;-92
2021/12/23 14:23:15;;;;;;;31.17;16.07;;;;;;;;;;5072080;28;20252;-91
2021/12/23 14:25:44;;;;;;;33.50;17.33;;;;;;;;;;5069575;28;20682;-91
2021/12/23 14:28:13;;;;;;;35.80;15.93;;;;;;;;;;5064224;28;20240;-92
2021/12/23 14:30:43;;;;;;;27.60;14.90;;;;;;;;;;5072050;28;20201;-91
2021/12/23 14:33:11;;;;;;;27.80;13.70;;;;;;;;;;5072630;28;20248;-91
2021/12/23 14:35:39;;;;;;;34.70;17.20;;;;;;;;;;5063545;28;20206;-91
2021/12/23 14:38:06;;;;;;;33.03;16.63;;;;;;;;;;5068837;28;20230;-92
2021/12/23 14:40:33;;;;;;;40.83;17.40;;;;;;;;;;5066107;28;20716;-91
2021/12/23 14:43:02;;;;;;;29.63;16.80;;;;;;;;;;5051915;28;20720;-91
2021/12/23 14:45:29;;;;;;;34.40;17.23;;;;;;;;;;5071852;28;20255;-92
2021/12/23 14:48:11;;;;;;;28.80;16.23;;;;;;;;;;5066915;28;20197;-91
2021/12/23 14:50:50;;;;;;;29.00;15.70;;;;;;;;;;5055136;28;20259;-91
2021/12/23 14:53:18;;;;;;;29.33;15.00;;;;;;;;;;5063076;28;20220;-92
2021/12/23 14:55:54;;;;;;;31.13;15.20;;;;;;;;;;5069584;28;20202;-92
2021/12/23 14:58:21;;;;;;;28.37;15.40;;;;;;;;;;5072165;28;20646;-91
2021/12/23 15:00:48;;;;;;;34.50;20.47;;;;;;;;;;5064635;28;20205;-92
2021/12/23 15:03:18;;;;;;;41.57;21.03;;;;;;;;;;5071648;28;20228;-92
2021/12/23 15:05:47;;;;;;;32.90;17.47;;;;;;;;;;5071896;28;20873;-91
2021/12/23 15:08:18;;;;;;;29.00;15.07;;;;;;;;;;5069198;28;20251;-92
2021/12/23 15:10:47;;;;;;;29.90;15.70;;;;;;;;;;5069717;28;20239;-91
2021/12/23 15:13:16;;;;;;;27.97;15.97;;;;;;;;;;5063764;28;20228;-91
2021/12/23 15:15:43;;;;;;;33.40;17.10;;;;;;;;;;5070123;28;20618;-91
2021/12/23 15:18:30;;;;;;;32.70;16.80;;;;;;;;;;5062972;28;20235;-92
2021/12/23 15:20:58;;;;;;;27.93;15.87;;;;;;;;;;5072106;28;20193;-92
2021/12/23 15:23:38;;;;;;;27.40;15.43;;;;;;;;;;5072263;28;20221;-92
2021/12/23 15:26:19;;;;;;;32.77;17.13;;;;;;;;;;5066120;28;20258;-90
2021/12/23 15:29:01;;;;;;;31.30;16.23;;;;;;;;;;5071585;28;20198;-92
2021/12/23 15:31:29;;;;;;;27.70;14.87;;;;;;;;;;5072452;28;20216;-92
2021/12/23 15:33:57;;;;;;;30.47;17.43;;;;;;;;;;5068355;28;20256;-92
2021/12/23 15:36:25;;;;;;;33.73;17.83;;;;;;;;;;5069454;28;20198;-92
2021/12/23 15:38:52;;;;;;;34.53;18.53;;;;;;;;;;5071510;28;20716;-92